sensor_id;sensor_type;location;lat;lon;timestamp;temperature;humidity
22416;DHT22;12204;50.600;4.608;2022-10-31T00:00:40;22.90;80.30
22416;DHT22;12204;50.600;4.608;2022-10-31T00:05:47;22.80;80.40
22416;DHT22;12204;50.600;4.608;2022-10-31T00:10:52;22.80;80.40
22416;DHT22;12204;50.600;4.608;2022-10-31T00:15:55;22.80;80.80
22416;DHT22;12204;50.600;4.608;2022-10-31T00:21:01;22.80;80.80
22416;DHT22;12204;50.600;4.608;2022-10-31T00:26:05;22.80;80.90
22416;DHT22;12204;50.600;4.608;2022-10-31T00:31:10;22.80;81.10
22416;DHT22;12204;50.600;4.608;2022-10-31T00:36:17;22.80;81.30
22416;DHT22;12204;50.600;4.608;2022-10-31T00:41:22;22.90;81.50
22416;DHT22;12204;50.600;4.608;2022-10-31T00:46:25;22.80;81.50
22416;DHT22;12204;50.600;4.608;2022-10-31T00:51:30;22.80;81.40
22416;DHT22;12204;50.600;4.608;2022-10-31T00:56:34;22.80;82.00
22416;DHT22;12204;50.600;4.608;2022-10-31T01:01:38;22.80;82.00
22416;DHT22;12204;50.600;4.608;2022-10-31T01:06:43;22.80;82.20
22416;DHT22;12204;50.600;4.608;2022-10-31T01:11:47;22.80;82.30
22416;DHT22;12204;50.600;4.608;2022-10-31T01:16:50;22.80;82.30
22416;DHT22;12204;50.600;4.608;2022-10-31T01:21:57;22.80;83.40
22416;DHT22;12204;50.600;4.608;2022-10-31T01:27:03;22.80;83.00
22416;DHT22;12204;50.600;4.608;2022-10-31T01:32:08;22.80;82.90
22416;DHT22;12204;50.600;4.608;2022-10-31T01:37:13;22.80;83.10
22416;DHT22;12204;50.600;4.608;2022-10-31T01:42:20;22.80;83.20
22416;DHT22;12204;50.600;4.608;2022-10-31T01:47:31;22.80;83.40
22416;DHT22;12204;50.600;4.608;2022-10-31T01:52:43;22.80;83.60
22416;DHT22;12204;50.600;4.608;2022-10-31T01:57:51;22.90;83.50
22416;DHT22;12204;50.600;4.608;2022-10-31T02:02:59;22.80;83.20
22416;DHT22;12204;50.600;4.608;2022-10-31T02:08:08;22.90;83.60
22416;DHT22;12204;50.600;4.608;2022-10-31T02:13:17;22.90;83.70
22416;DHT22;12204;50.600;4.608;2022-10-31T02:18:25;22.80;83.90
22416;DHT22;12204;50.600;4.608;2022-10-31T02:24:05;22.80;83.80
22416;DHT22;12204;50.600;4.608;2022-10-31T02:30:03;22.80;84.10
22416;DHT22;12204;50.600;4.608;2022-10-31T02:35:16;22.90;84.00
22416;DHT22;12204;50.600;4.608;2022-10-31T02:40:51;22.80;84.30
22416;DHT22;12204;50.600;4.608;2022-10-31T02:46:24;22.90;84.00
22416;DHT22;12204;50.600;4.608;2022-10-31T02:51:34;22.90;84.50
22416;DHT22;12204;50.600;4.608;2022-10-31T02:56:38;22.90;84.70
22416;DHT22;12204;50.600;4.608;2022-10-31T03:07:42;22.90;84.50
22416;DHT22;12204;50.600;4.608;2022-10-31T03:12:58;22.90;84.80
22416;DHT22;12204;50.600;4.608;2022-10-31T03:18:09;22.80;84.60
22416;DHT22;12204;50.600;4.608;2022-10-31T03:23:19;22.90;84.70
22416;DHT22;12204;50.600;4.608;2022-10-31T03:28:31;22.90;84.80
22416;DHT22;12204;50.600;4.608;2022-10-31T03:33:42;22.90;84.80
22416;DHT22;12204;50.600;4.608;2022-10-31T03:38:48;22.90;84.90
22416;DHT22;12204;50.600;4.608;2022-10-31T03:43:55;22.80;84.90
22416;DHT22;12204;50.600;4.608;2022-10-31T03:49:03;22.80;85.00
22416;DHT22;12204;50.600;4.608;2022-10-31T03:54:13;22.80;85.00
22416;DHT22;12204;50.600;4.608;2022-10-31T03:59:26;22.80;85.20
22416;DHT22;12204;50.600;4.608;2022-10-31T04:04:34;22.80;85.20
22416;DHT22;12204;50.600;4.608;2022-10-31T04:09:43;22.90;85.50
22416;DHT22;12204;50.600;4.608;2022-10-31T04:14:50;22.90;85.60
22416;DHT22;12204;50.600;4.608;2022-10-31T04:19:59;22.80;85.70
22416;DHT22;12204;50.600;4.608;2022-10-31T04:25:06;22.80;85.70
22416;DHT22;12204;50.600;4.608;2022-10-31T04:30:13;22.80;85.50
22416;DHT22;12204;50.600;4.608;2022-10-31T04:35:16;22.80;85.90
22416;DHT22;12204;50.600;4.608;2022-10-31T04:40:22;22.90;86.40
22416;DHT22;12204;50.600;4.608;2022-10-31T04:45:44;22.80;86.20
22416;DHT22;12204;50.600;4.608;2022-10-31T04:50:48;22.80;86.20
22416;DHT22;12204;50.600;4.608;2022-10-31T04:55:57;22.90;86.20
22416;DHT22;12204;50.600;4.608;2022-10-31T05:01:10;22.80;86.20
22416;DHT22;12204;50.600;4.608;2022-10-31T05:06:14;22.90;86.30
22416;DHT22;12204;50.600;4.608;2022-10-31T05:11:22;22.90;86.20
22416;DHT22;12204;50.600;4.608;2022-10-31T05:16:27;22.80;86.10
22416;DHT22;12204;50.600;4.608;2022-10-31T05:21:57;22.80;86.00
22416;DHT22;12204;50.600;4.608;2022-10-31T05:27:02;22.80;86.00
22416;DHT22;12204;50.600;4.608;2022-10-31T05:32:06;22.80;86.00
22416;DHT22;12204;50.600;4.608;2022-10-31T05:37:28;22.80;85.90
22416;DHT22;12204;50.600;4.608;2022-10-31T05:42:35;22.80;85.80
22416;DHT22;12204;50.600;4.608;2022-10-31T05:47:41;22.80;85.50
22416;DHT22;12204;50.600;4.608;2022-10-31T05:53:07;22.90;84.70
22416;DHT22;12204;50.600;4.608;2022-10-31T05:58:14;22.90;84.50
22416;DHT22;12204;50.600;4.608;2022-10-31T06:03:24;22.90;84.30
22416;DHT22;12204;50.600;4.608;2022-10-31T06:08:31;22.90;84.20
22416;DHT22;12204;50.600;4.608;2022-10-31T06:13:40;23.00;84.20
22416;DHT22;12204;50.600;4.608;2022-10-31T06:18:51;23.00;84.00
22416;DHT22;12204;50.600;4.608;2022-10-31T06:23:55;23.00;83.90
22416;DHT22;12204;50.600;4.608;2022-10-31T06:29:26;23.00;84.10
22416;DHT22;12204;50.600;4.608;2022-10-31T06:34:42;23.00;84.10
22416;DHT22;12204;50.600;4.608;2022-10-31T06:39:46;23.00;84.20
22416;DHT22;12204;50.600;4.608;2022-10-31T06:44:52;23.00;84.10
22416;DHT22;12204;50.600;4.608;2022-10-31T06:50:05;23.00;84.20
22416;DHT22;12204;50.600;4.608;2022-10-31T06:55:10;23.00;84.10
22416;DHT22;12204;50.600;4.608;2022-10-31T07:00:16;23.00;84.20
22416;DHT22;12204;50.600;4.608;2022-10-31T07:05:23;23.00;84.10
22416;DHT22;12204;50.600;4.608;2022-10-31T07:10:29;23.00;84.20
22416;DHT22;12204;50.600;4.608;2022-10-31T07:15:44;23.00;84.20
22416;DHT22;12204;50.600;4.608;2022-10-31T07:20:47;23.00;84.10
22416;DHT22;12204;50.600;4.608;2022-10-31T07:25:55;23.00;84.00
22416;DHT22;12204;50.600;4.608;2022-10-31T07:31:06;23.00;84.10
22416;DHT22;12204;50.600;4.608;2022-10-31T07:36:12;23.00;84.30
22416;DHT22;12204;50.600;4.608;2022-10-31T07:41:22;23.00;84.20
22416;DHT22;12204;50.600;4.608;2022-10-31T07:46:27;23.00;84.10
22416;DHT22;12204;50.600;4.608;2022-10-31T07:52:08;23.00;84.30
22416;DHT22;12204;50.600;4.608;2022-10-31T07:57:34;23.00;84.10
22416;DHT22;12204;50.600;4.608;2022-10-31T08:02:42;23.00;85.20
22416;DHT22;12204;50.600;4.608;2022-10-31T08:08:04;23.00;85.30
22416;DHT22;12204;50.600;4.608;2022-10-31T08:13:10;23.00;85.20
22416;DHT22;12204;50.600;4.608;2022-10-31T08:18:21;23.00;84.50
22416;DHT22;12204;50.600;4.608;2022-10-31T08:23:26;22.90;83.40
22416;DHT22;12204;50.600;4.608;2022-10-31T08:28:30;22.90;82.90
22416;DHT22;12204;50.600;4.608;2022-10-31T08:33:34;22.80;82.70
22416;DHT22;12204;50.600;4.608;2022-10-31T08:38:54;22.80;83.00
22416;DHT22;12204;50.600;4.608;2022-10-31T08:44:03;22.70;82.90
22416;DHT22;12204;50.600;4.608;2022-10-31T08:49:09;22.70;82.30
22416;DHT22;12204;50.600;4.608;2022-10-31T08:54:15;22.70;82.00
22416;DHT22;12204;50.600;4.608;2022-10-31T08:59:27;22.60;81.50
22416;DHT22;12204;50.600;4.608;2022-10-31T09:04:55;22.60;81.40
22416;DHT22;12204;50.600;4.608;2022-10-31T09:09:58;22.60;81.00
22416;DHT22;12204;50.600;4.608;2022-10-31T09:15:06;22.50;80.60
22416;DHT22;12204;50.600;4.608;2022-10-31T09:20:20;22.50;80.50
22416;DHT22;12204;50.600;4.608;2022-10-31T09:25:25;22.50;80.40
22416;DHT22;12204;50.600;4.608;2022-10-31T09:30:50;22.50;80.30
22416;DHT22;12204;50.600;4.608;2022-10-31T09:36:15;22.40;80.10
22416;DHT22;12204;50.600;4.608;2022-10-31T09:41:24;22.50;80.10
22416;DHT22;12204;50.600;4.608;2022-10-31T09:46:41;22.40;80.00
22416;DHT22;12204;50.600;4.608;2022-10-31T09:51:59;22.40;79.90
22416;DHT22;12204;50.600;4.608;2022-10-31T09:57:12;22.40;79.70
22416;DHT22;12204;50.600;4.608;2022-10-31T10:02:24;22.40;79.70
22416;DHT22;12204;50.600;4.608;2022-10-31T10:07:40;22.40;79.70
22416;DHT22;12204;50.600;4.608;2022-10-31T10:13:36;22.40;79.60
22416;DHT22;12204;50.600;4.608;2022-10-31T10:19:06;22.40;80.30
22416;DHT22;12204;50.600;4.608;2022-10-31T10:24:31;22.40;79.40
22416;DHT22;12204;50.600;4.608;2022-10-31T10:29:49;22.30;79.30
22416;DHT22;12204;50.600;4.608;2022-10-31T10:35:01;22.30;79.10
22416;DHT22;12204;50.600;4.608;2022-10-31T10:40:16;22.30;79.00
22416;DHT22;12204;50.600;4.608;2022-10-31T10:45:21;22.20;78.80
22416;DHT22;12204;50.600;4.608;2022-10-31T10:50:47;22.30;79.00
22416;DHT22;12204;50.600;4.608;2022-10-31T10:55:58;22.30;78.90
22416;DHT22;12204;50.600;4.608;2022-10-31T11:01:12;22.30;78.80
22416;DHT22;12204;50.600;4.608;2022-10-31T11:06:23;22.30;78.80
22416;DHT22;12204;50.600;4.608;2022-10-31T11:11:29;22.30;78.80
22416;DHT22;12204;50.600;4.608;2022-10-31T11:16:36;22.30;79.00
22416;DHT22;12204;50.600;4.608;2022-10-31T11:21:42;22.30;78.70
22416;DHT22;12204;50.600;4.608;2022-10-31T11:27:14;22.30;78.80
22416;DHT22;12204;50.600;4.608;2022-10-31T11:32:21;22.30;78.80
22416;DHT22;12204;50.600;4.608;2022-10-31T11:37:29;22.20;78.70
22416;DHT22;12204;50.600;4.608;2022-10-31T11:42:40;22.20;78.80
22416;DHT22;12204;50.600;4.608;2022-10-31T11:47:46;22.30;78.80
22416;DHT22;12204;50.600;4.608;2022-10-31T11:52:59;22.30;78.70
22416;DHT22;12204;50.600;4.608;2022-10-31T11:58:17;22.20;78.60
22416;DHT22;12204;50.600;4.608;2022-10-31T12:03:43;22.30;78.80
22416;DHT22;12204;50.600;4.608;2022-10-31T12:08:57;22.20;78.80
22416;DHT22;12204;50.600;4.608;2022-10-31T12:14:10;22.20;78.60
22416;DHT22;12204;50.600;4.608;2022-10-31T12:19:32;22.30;78.70
22416;DHT22;12204;50.600;4.608;2022-10-31T12:25:11;22.30;78.60
22416;DHT22;12204;50.600;4.608;2022-10-31T12:30:28;22.30;78.50
22416;DHT22;12204;50.600;4.608;2022-10-31T12:35:49;22.20;78.50
22416;DHT22;12204;50.600;4.608;2022-10-31T12:41:15;22.20;78.50
22416;DHT22;12204;50.600;4.608;2022-10-31T12:46:51;22.30;78.70
22416;DHT22;12204;50.600;4.608;2022-10-31T12:52:24;22.30;78.60
22416;DHT22;12204;50.600;4.608;2022-10-31T12:57:41;22.20;78.50
22416;DHT22;12204;50.600;4.608;2022-10-31T13:02:53;22.20;78.70
22416;DHT22;12204;50.600;4.608;2022-10-31T13:08:04;22.20;78.60
22416;DHT22;12204;50.600;4.608;2022-10-31T13:13:14;22.20;78.50
22416;DHT22;12204;50.600;4.608;2022-10-31T13:18:27;22.30;78.60
22416;DHT22;12204;50.600;4.608;2022-10-31T13:23:35;22.20;78.40
22416;DHT22;12204;50.600;4.608;2022-10-31T13:29:01;22.20;78.40
22416;DHT22;12204;50.600;4.608;2022-10-31T13:34:21;22.20;78.40
22416;DHT22;12204;50.600;4.608;2022-10-31T13:39:38;22.20;78.40
22416;DHT22;12204;50.600;4.608;2022-10-31T13:44:53;22.30;78.50
22416;DHT22;12204;50.600;4.608;2022-10-31T13:50:14;22.30;78.40
22416;DHT22;12204;50.600;4.608;2022-10-31T13:55:39;22.30;78.40
22416;DHT22;12204;50.600;4.608;2022-10-31T14:00:44;22.30;78.30
22416;DHT22;12204;50.600;4.608;2022-10-31T14:05:53;22.30;78.30
22416;DHT22;12204;50.600;4.608;2022-10-31T14:10:58;22.40;78.40
22416;DHT22;12204;50.600;4.608;2022-10-31T14:16:03;22.40;78.70
22416;DHT22;12204;50.600;4.608;2022-10-31T14:21:28;22.40;78.40
22416;DHT22;12204;50.600;4.608;2022-10-31T14:26:35;22.40;78.50
22416;DHT22;12204;50.600;4.608;2022-10-31T14:31:41;22.40;78.40
22416;DHT22;12204;50.600;4.608;2022-10-31T14:42:49;22.40;78.40
22416;DHT22;12204;50.600;4.608;2022-10-31T14:48:23;22.40;78.40
22416;DHT22;12204;50.600;4.608;2022-10-31T14:53:44;22.50;78.60
22416;DHT22;12204;50.600;4.608;2022-10-31T14:58:53;22.50;78.60
22416;DHT22;12204;50.600;4.608;2022-10-31T15:04:04;22.50;78.80
22416;DHT22;12204;50.600;4.608;2022-10-31T15:09:28;22.50;80.30
22416;DHT22;12204;50.600;4.608;2022-10-31T15:14:33;22.60;82.20
22416;DHT22;12204;50.600;4.608;2022-10-31T15:19:36;22.60;80.80
22416;DHT22;12204;50.600;4.608;2022-10-31T15:24:42;22.50;81.00
22416;DHT22;12204;50.600;4.608;2022-10-31T15:29:50;22.50;81.00
22416;DHT22;12204;50.600;4.608;2022-10-31T15:34:56;22.50;81.00
22416;DHT22;12204;50.600;4.608;2022-10-31T15:40:14;22.50;82.20
22416;DHT22;12204;50.600;4.608;2022-10-31T15:45:22;22.60;81.90
22416;DHT22;12204;50.600;4.608;2022-10-31T15:50:30;22.70;81.80
22416;DHT22;12204;50.600;4.608;2022-10-31T15:55:46;22.80;82.60
22416;DHT22;12204;50.600;4.608;2022-10-31T16:00:58;22.80;83.60
22416;DHT22;12204;50.600;4.608;2022-10-31T16:06:04;22.80;83.00
22416;DHT22;12204;50.600;4.608;2022-10-31T16:11:20;22.70;81.90
22416;DHT22;12204;50.600;4.608;2022-10-31T16:16:29;22.70;81.30
22416;DHT22;12204;50.600;4.608;2022-10-31T16:21:38;22.60;81.20
22416;DHT22;12204;50.600;4.608;2022-10-31T16:26:48;22.60;80.40
22416;DHT22;12204;50.600;4.608;2022-10-31T16:31:53;22.60;79.80
22416;DHT22;12204;50.600;4.608;2022-10-31T16:36:56;22.60;79.70
22416;DHT22;12204;50.600;4.608;2022-10-31T16:42:01;22.60;79.70
22416;DHT22;12204;50.600;4.608;2022-10-31T16:47:11;22.60;80.30
22416;DHT22;12204;50.600;4.608;2022-10-31T16:52:17;22.60;79.80
22416;DHT22;12204;50.600;4.608;2022-10-31T16:57:26;22.60;79.70
22416;DHT22;12204;50.600;4.608;2022-10-31T17:02:30;22.60;79.50
22416;DHT22;12204;50.600;4.608;2022-10-31T17:07:34;22.60;79.80
22416;DHT22;12204;50.600;4.608;2022-10-31T17:12:41;22.60;79.80
22416;DHT22;12204;50.600;4.608;2022-10-31T17:17:47;22.60;79.50
22416;DHT22;12204;50.600;4.608;2022-10-31T17:22:50;22.60;79.80
22416;DHT22;12204;50.600;4.608;2022-10-31T17:27:56;22.60;80.20
22416;DHT22;12204;50.600;4.608;2022-10-31T17:33:00;22.60;80.10
22416;DHT22;12204;50.600;4.608;2022-10-31T17:38:04;22.60;79.80
22416;DHT22;12204;50.600;4.608;2022-10-31T17:43:09;22.60;80.00
22416;DHT22;12204;50.600;4.608;2022-10-31T17:48:13;22.70;80.30
22416;DHT22;12204;50.600;4.608;2022-10-31T17:53:17;22.70;80.50
22416;DHT22;12204;50.600;4.608;2022-10-31T17:58:22;22.70;80.60
22416;DHT22;12204;50.600;4.608;2022-10-31T18:03:26;22.80;80.90
22416;DHT22;12204;50.600;4.608;2022-10-31T18:08:32;22.80;80.90
22416;DHT22;12204;50.600;4.608;2022-10-31T18:13:42;22.80;81.20
22416;DHT22;12204;50.600;4.608;2022-10-31T18:18:49;22.80;81.20
22416;DHT22;12204;50.600;4.608;2022-10-31T18:23:54;22.80;81.30
22416;DHT22;12204;50.600;4.608;2022-10-31T18:29:01;22.80;81.20
22416;DHT22;12204;50.600;4.608;2022-10-31T18:34:04;22.80;81.40
22416;DHT22;12204;50.600;4.608;2022-10-31T18:39:08;22.80;81.40
22416;DHT22;12204;50.600;4.608;2022-10-31T18:44:14;22.80;81.50
22416;DHT22;12204;50.600;4.608;2022-10-31T18:49:17;22.80;81.60
22416;DHT22;12204;50.600;4.608;2022-10-31T18:54:23;22.80;81.60
22416;DHT22;12204;50.600;4.608;2022-10-31T18:59:28;22.80;81.60
22416;DHT22;12204;50.600;4.608;2022-10-31T19:04:31;22.80;81.70
22416;DHT22;12204;50.600;4.608;2022-10-31T19:09:35;22.80;82.50
22416;DHT22;12204;50.600;4.608;2022-10-31T19:14:40;22.80;81.90
22416;DHT22;12204;50.600;4.608;2022-10-31T19:19:44;22.80;82.00
22416;DHT22;12204;50.600;4.608;2022-10-31T19:24:47;22.80;81.80
22416;DHT22;12204;50.600;4.608;2022-10-31T19:29:52;22.80;81.80
22416;DHT22;12204;50.600;4.608;2022-10-31T19:34:55;22.80;81.90
22416;DHT22;12204;50.600;4.608;2022-10-31T19:39:59;22.80;82.00
22416;DHT22;12204;50.600;4.608;2022-10-31T19:45:05;22.80;82.00
22416;DHT22;12204;50.600;4.608;2022-10-31T19:50:09;22.80;82.10
22416;DHT22;12204;50.600;4.608;2022-10-31T19:55:12;22.80;82.00
22416;DHT22;12204;50.600;4.608;2022-10-31T20:00:18;22.80;82.70
22416;DHT22;12204;50.600;4.608;2022-10-31T20:05:22;22.80;82.20
22416;DHT22;12204;50.600;4.608;2022-10-31T20:10:25;22.90;82.20
22416;DHT22;12204;50.600;4.608;2022-10-31T20:15:30;22.80;82.10
22416;DHT22;12204;50.600;4.608;2022-10-31T20:20:34;22.80;82.30
22416;DHT22;12204;50.600;4.608;2022-10-31T20:25:44;22.80;82.70
22416;DHT22;12204;50.600;4.608;2022-10-31T20:30:51;22.80;82.90
22416;DHT22;12204;50.600;4.608;2022-10-31T20:35:55;22.80;83.00
22416;DHT22;12204;50.600;4.608;2022-10-31T20:40:59;22.80;83.00
22416;DHT22;12204;50.600;4.608;2022-10-31T20:46:06;22.80;82.90
22416;DHT22;12204;50.600;4.608;2022-10-31T20:51:14;22.80;83.30
22416;DHT22;12204;50.600;4.608;2022-10-31T20:56:21;22.80;83.60
22416;DHT22;12204;50.600;4.608;2022-10-31T21:01:30;22.90;83.60
22416;DHT22;12204;50.600;4.608;2022-10-31T21:06:37;22.90;83.70
22416;DHT22;12204;50.600;4.608;2022-10-31T21:11:42;22.90;83.70
22416;DHT22;12204;50.600;4.608;2022-10-31T21:16:47;22.90;83.70
22416;DHT22;12204;50.600;4.608;2022-10-31T21:21:50;22.90;83.90
22416;DHT22;12204;50.600;4.608;2022-10-31T21:26:54;22.90;83.90
22416;DHT22;12204;50.600;4.608;2022-10-31T21:31:59;23.00;83.90
22416;DHT22;12204;50.600;4.608;2022-10-31T21:37:02;23.00;84.00
22416;DHT22;12204;50.600;4.608;2022-10-31T21:42:06;22.90;84.00
22416;DHT22;12204;50.600;4.608;2022-10-31T21:47:11;22.90;84.00
22416;DHT22;12204;50.600;4.608;2022-10-31T21:52:15;22.90;83.90
22416;DHT22;12204;50.600;4.608;2022-10-31T21:57:18;22.90;84.00
22416;DHT22;12204;50.600;4.608;2022-10-31T22:02:24;22.90;84.00
22416;DHT22;12204;50.600;4.608;2022-10-31T22:07:28;22.90;84.00
22416;DHT22;12204;50.600;4.608;2022-10-31T22:12:32;22.90;83.90
22416;DHT22;12204;50.600;4.608;2022-10-31T22:17:37;22.90;84.00
22416;DHT22;12204;50.600;4.608;2022-10-31T22:22:41;22.90;83.80
22416;DHT22;12204;50.600;4.608;2022-10-31T22:27:44;22.90;83.90
22416;DHT22;12204;50.600;4.608;2022-10-31T22:32:49;22.90;84.00
22416;DHT22;12204;50.600;4.608;2022-10-31T22:37:53;22.90;83.90
22416;DHT22;12204;50.600;4.608;2022-10-31T22:43:03;23.00;84.10
22416;DHT22;12204;50.600;4.608;2022-10-31T22:48:08;23.00;84.00
22416;DHT22;12204;50.600;4.608;2022-10-31T22:53:11;23.00;83.90
22416;DHT22;12204;50.600;4.608;2022-10-31T22:58:17;22.90;84.00
22416;DHT22;12204;50.600;4.608;2022-10-31T23:03:23;23.00;84.10
22416;DHT22;12204;50.600;4.608;2022-10-31T23:08:28;23.00;84.10
22416;DHT22;12204;50.600;4.608;2022-10-31T23:13:33;23.00;84.20
22416;DHT22;12204;50.600;4.608;2022-10-31T23:18:55;23.00;84.80
22416;DHT22;12204;50.600;4.608;2022-10-31T23:24:00;23.00;84.20
22416;DHT22;12204;50.600;4.608;2022-10-31T23:29:03;23.00;84.20
22416;DHT22;12204;50.600;4.608;2022-10-31T23:34:08;22.90;84.20
22416;DHT22;12204;50.600;4.608;2022-10-31T23:39:12;23.00;84.10
22416;DHT22;12204;50.600;4.608;2022-10-31T23:44:16;23.00;84.10
22416;DHT22;12204;50.600;4.608;2022-10-31T23:49:21;23.00;84.10
22416;DHT22;12204;50.600;4.608;2022-10-31T23:54:25;22.90;84.00
22416;DHT22;12204;50.600;4.608;2022-10-31T23:59:30;23.00;84.00
